createdAt,value
2023-05-22T04:06:50.183Z,15.60
2023-05-22T04:10:22.872Z,15.70
2023-05-22T04:13:51.124Z,15.80
2023-05-22T04:17:19.773Z,15.70
2023-05-22T04:20:47.328Z,15.60
2023-05-22T04:24:15.995Z,15.30
2023-05-22T04:27:43.329Z,15.20
2023-05-22T04:31:10.865Z,15.40
2023-05-22T04:34:38.328Z,15.60
2023-05-22T04:38:06.560Z,15.90
2023-05-22T04:41:35.076Z,15.90
2023-05-22T04:45:02.289Z,15.50
2023-05-22T04:48:29.472Z,15.60
2023-05-22T04:51:57.677Z,15.50
2023-05-22T04:55:24.847Z,15.50
2023-05-22T04:58:54.181Z,15.50
2023-05-22T05:02:21.642Z,15.50
2023-05-22T05:05:49.131Z,15.60
2023-05-22T05:09:16.329Z,15.70
2023-05-22T05:12:43.235Z,15.50
2023-05-22T05:16:12.539Z,15.60
2023-05-22T05:19:39.956Z,15.90
2023-05-22T05:23:07.202Z,16.10
2023-05-22T05:26:34.261Z,16.30
2023-05-22T05:30:02.080Z,16.40
2023-05-22T05:33:32.115Z,16.40
2023-05-22T05:36:59.674Z,16.10
2023-05-22T05:40:26.696Z,16.10
2023-05-22T05:43:54.253Z,15.90
2023-05-22T05:47:24.319Z,15.80
2023-05-22T05:50:54.510Z,16.00
2023-05-22T05:54:22.141Z,16.20
2023-05-22T05:57:49.154Z,16.40
2023-05-22T06:01:16.748Z,16.60
2023-05-22T06:04:43.916Z,16.70
2023-05-22T06:08:13.527Z,16.80
2023-05-22T06:11:40.926Z,16.90
2023-05-22T06:15:08.885Z,17.00
2023-05-22T06:18:37.252Z,17.10
2023-05-22T06:22:04.767Z,17.10
2023-05-22T06:25:33.941Z,17.10
2023-05-22T06:29:00.984Z,17.10
2023-05-22T06:32:28.347Z,17.20
2023-05-22T06:35:55.972Z,17.20
2023-05-22T06:39:23.427Z,17.20
2023-05-22T06:42:52.044Z,17.20
2023-05-22T06:46:19.445Z,17.30
2023-05-22T06:49:46.462Z,17.40
2023-05-22T06:53:13.816Z,17.40
2023-05-22T06:56:41.408Z,17.60
2023-05-22T07:00:13.085Z,17.70
2023-05-22T07:03:40.384Z,17.70
2023-05-22T07:07:07.603Z,17.80
2023-05-22T07:10:34.842Z,17.90
2023-05-22T07:14:05.937Z,18.00
2023-05-22T07:17:34.924Z,18.00
2023-05-22T07:21:02.886Z,18.20
2023-05-22T07:24:36.200Z,18.30
2023-05-22T07:28:08.721Z,18.40
2023-05-22T07:31:39.378Z,18.50
2023-05-22T07:35:07.702Z,18.60
2023-05-22T07:38:35.031Z,18.60
2023-05-22T07:42:03.139Z,18.70
2023-05-22T07:45:30.427Z,18.90
2023-05-22T07:49:01.955Z,18.90
2023-05-22T07:52:30.438Z,19.10
2023-05-22T07:55:57.362Z,19.10
2023-05-22T07:59:25.658Z,19.10
2023-05-22T08:02:56.030Z,19.30
2023-05-22T08:06:25.044Z,19.50
2023-05-22T08:09:52.346Z,19.60
2023-05-22T08:13:19.910Z,19.80
2023-05-22T08:16:47.446Z,19.90
2023-05-22T08:20:15.402Z,20.00
2023-05-22T08:23:44.076Z,20.40
2023-05-22T08:27:11.301Z,20.50
2023-05-22T08:30:39.065Z,20.60
2023-05-22T08:34:07.298Z,20.80
2023-05-22T08:37:34.551Z,21.10
2023-05-22T08:41:03.329Z,21.20
2023-05-22T08:44:30.729Z,21.40
2023-05-22T08:47:59.694Z,21.70
2023-05-22T08:51:29.466Z,21.80
2023-05-22T08:54:58.448Z,22.00
2023-05-22T08:58:27.682Z,22.30
2023-05-22T09:01:55.237Z,22.10
2023-05-22T09:05:26.935Z,22.50
2023-05-22T09:08:54.904Z,22.50
2023-05-22T09:12:22.815Z,22.70
2023-05-22T09:15:51.544Z,23.00
2023-05-22T09:19:19.995Z,23.00
2023-05-22T09:22:48.530Z,23.30
2023-05-22T09:26:18.740Z,23.30
2023-05-22T09:29:52.529Z,23.40
2023-05-22T09:33:20.028Z,23.60
2023-05-22T09:36:49.436Z,23.50
2023-05-22T09:40:16.925Z,23.80
2023-05-22T09:43:51.115Z,24.10
2023-05-22T09:47:19.701Z,24.10
2023-05-22T09:50:48.861Z,24.30
2023-05-22T09:54:17.947Z,24.30
2023-05-22T09:57:48.337Z,24.00
2023-05-22T10:01:17.562Z,23.70
2023-05-22T10:04:50.169Z,23.90
2023-05-22T10:08:22.464Z,24.50
2023-05-22T10:11:54.473Z,25.00
2023-05-22T10:15:23.005Z,25.40
2023-05-22T10:18:52.582Z,25.20
2023-05-22T10:22:23.087Z,25.00
2023-05-22T10:25:51.920Z,25.40
2023-05-22T10:29:29.518Z,25.60
2023-05-22T10:33:04.639Z,25.90
2023-05-22T10:36:48.974Z,26.10
2023-05-22T10:40:30.567Z,26.30
2023-05-22T10:43:59.899Z,26.20
2023-05-22T10:47:27.825Z,26.20
2023-05-22T10:51:07.774Z,26.30
2023-05-22T10:54:40.585Z,26.20
2023-05-22T10:58:14.158Z,26.50
2023-05-22T11:01:41.904Z,26.30
2023-05-22T11:05:31.168Z,26.50
2023-05-22T11:09:30.273Z,26.20
2023-05-22T11:13:16.076Z,26.50
2023-05-22T11:16:47.424Z,26.50
2023-05-22T11:20:20.164Z,26.60
2023-05-22T11:23:54.101Z,26.60
2023-05-22T11:27:22.234Z,26.50
2023-05-22T11:30:49.966Z,26.80
2023-05-22T11:34:17.625Z,26.90
2023-05-22T11:37:45.123Z,27.10
2023-05-22T11:41:17.270Z,27.10
2023-05-22T11:44:44.398Z,27.50
2023-05-22T11:48:16.371Z,27.80
2023-05-22T11:51:44.091Z,27.70
2023-05-22T11:55:12.076Z,27.80
2023-05-22T11:58:41.084Z,26.90
2023-05-22T12:02:08.886Z,26.90
2023-05-22T12:05:38.364Z,27.60
2023-05-22T12:09:07.395Z,27.80
2023-05-22T12:12:36.593Z,27.80
2023-05-22T12:16:19.877Z,28.30
2023-05-22T12:19:48.835Z,28.50
2023-05-22T12:23:22.519Z,28.70
2023-05-22T12:26:59.832Z,28.90
2023-05-22T12:30:28.877Z,28.60
2023-05-22T12:33:57.557Z,28.40
2023-05-22T12:37:35.744Z,28.50
2023-05-22T12:41:05.951Z,28.00
2023-05-22T12:44:33.338Z,28.00
2023-05-22T12:48:02.097Z,28.00
2023-05-22T12:51:31.602Z,27.70
2023-05-22T12:54:59.530Z,27.90
2023-05-22T12:58:26.537Z,28.10
2023-05-22T13:01:58.212Z,28.10
2023-05-22T13:05:27.387Z,27.70
2023-05-22T13:08:54.816Z,28.30
2023-05-22T13:12:22.255Z,28.30
2023-05-22T13:15:49.614Z,28.80
2023-05-22T13:19:19.209Z,29.20
2023-05-22T13:22:47.958Z,28.60
2023-05-22T13:26:16.655Z,29.00
2023-05-22T13:29:44.471Z,29.30
2023-05-22T13:33:13.879Z,29.10
2023-05-22T13:36:41.252Z,29.40
2023-05-22T13:40:10.930Z,29.50
2023-05-22T13:43:38.938Z,29.10
2023-05-22T13:47:06.432Z,29.50
2023-05-22T13:50:33.789Z,30.00
2023-05-22T13:54:00.963Z,30.10
2023-05-22T13:57:29.684Z,29.00
2023-05-22T14:01:00.132Z,29.60
2023-05-22T14:04:28.284Z,30.10
2023-05-22T14:07:56.887Z,30.50
2023-05-22T14:11:24.628Z,30.50
2023-05-22T14:14:53.995Z,30.70
2023-05-22T14:18:21.382Z,31.00
2023-05-22T14:21:49.965Z,30.70
2023-05-22T14:25:17.556Z,30.20
2023-05-22T14:28:44.906Z,30.20
2023-05-22T14:32:14.170Z,30.00
2023-05-22T14:35:41.619Z,29.30
2023-05-22T14:39:09.036Z,29.20
2023-05-22T14:42:36.696Z,28.80
2023-05-22T14:46:04.760Z,28.60
2023-05-22T14:49:34.068Z,28.60
2023-05-22T14:53:02.986Z,28.20
2023-05-22T14:56:30.280Z,28.20
2023-05-22T14:59:58.303Z,28.30
2023-05-22T15:03:25.749Z,28.10
2023-05-22T15:06:54.661Z,28.10
2023-05-22T15:10:22.169Z,28.50
2023-05-22T15:13:49.340Z,28.30
2023-05-22T15:17:16.810Z,29.00
2023-05-22T15:20:43.907Z,28.50
2023-05-22T15:24:13.528Z,28.20
2023-05-22T15:27:41.404Z,28.40
2023-05-22T15:31:09.137Z,28.30
2023-05-22T15:34:36.277Z,28.20
2023-05-22T15:38:05.063Z,28.40
2023-05-22T15:41:33.945Z,28.10
2023-05-22T15:45:02.184Z,28.10
2023-05-22T15:48:32.419Z,28.10
2023-05-22T15:51:59.848Z,28.00
2023-05-22T15:55:27.242Z,27.90
2023-05-22T15:58:56.175Z,27.50
2023-05-22T16:02:23.447Z,27.70
2023-05-22T16:05:50.739Z,27.10
2023-05-22T16:09:19.551Z,27.70
2023-05-22T16:12:46.969Z,27.80
2023-05-22T16:16:17.788Z,27.60
2023-05-22T16:19:44.850Z,27.40
2023-05-22T16:23:12.166Z,27.40
2023-05-22T16:26:39.402Z,27.50
2023-05-22T16:30:08.800Z,27.30
2023-05-22T16:33:37.689Z,27.40
2023-05-22T16:37:05.638Z,27.20
2023-05-22T16:40:33.065Z,27.20
2023-05-22T16:44:00.830Z,27.40
2023-05-22T16:47:29.020Z,27.60
2023-05-22T16:50:57.900Z,26.90
2023-05-22T16:54:25.974Z,26.70
2023-05-22T16:57:53.322Z,26.70
2023-05-22T17:01:22.231Z,25.40
2023-05-22T17:04:49.515Z,24.70
2023-05-22T17:08:18.303Z,24.00
2023-05-22T17:11:45.372Z,23.00
2023-05-22T17:15:13.183Z,22.80
2023-05-22T17:18:40.931Z,22.70
2023-05-22T17:22:07.935Z,22.80
2023-05-22T17:25:37.042Z,22.40
2023-05-22T17:29:04.481Z,22.40
2023-05-22T17:32:32.377Z,22.00
2023-05-22T17:35:59.982Z,21.60
2023-05-22T17:39:28.745Z,21.90
2023-05-22T17:42:58.865Z,21.40
2023-05-22T17:46:26.788Z,21.10
2023-05-22T17:49:57.158Z,20.80
2023-05-22T17:53:24.426Z,20.80
2023-05-22T17:56:51.984Z,20.90
2023-05-22T18:00:20.809Z,21.50
2023-05-22T18:03:48.302Z,22.40
2023-05-22T18:07:16.273Z,22.20
2023-05-22T18:10:43.656Z,21.90
2023-05-22T18:14:11.265Z,21.70
2023-05-22T18:17:41.600Z,22.00
2023-05-22T18:21:10.985Z,22.00
2023-05-22T18:24:38.311Z,21.30
2023-05-22T18:28:06.907Z,21.20
2023-05-22T18:31:34.273Z,21.80
2023-05-22T18:35:04.785Z,22.20
2023-05-22T18:38:32.311Z,21.90
2023-05-22T18:42:00.318Z,22.00
2023-05-22T18:45:27.591Z,21.10
2023-05-22T18:48:56.550Z,21.20
2023-05-22T18:52:25.738Z,21.00
2023-05-22T18:55:54.130Z,21.00
2023-05-22T18:59:21.590Z,20.80
2023-05-22T19:02:49.106Z,20.60
2023-05-22T19:06:23.194Z,20.90
2023-05-22T19:10:08.485Z,20.90
2023-05-22T19:13:35.786Z,20.90
2023-05-22T19:17:03.972Z,20.90
2023-05-22T19:20:31.355Z,20.90
2023-05-22T19:24:00.449Z,20.80
2023-05-22T19:27:28.071Z,20.70
2023-05-22T19:30:58.290Z,20.80
2023-05-22T19:34:25.599Z,21.10
2023-05-22T19:37:52.777Z,20.80
2023-05-22T19:41:23.357Z,20.70
2023-05-22T19:44:53.330Z,20.90
2023-05-22T19:48:21.533Z,21.10
2023-05-22T19:51:49.247Z,21.10
2023-05-22T19:55:16.743Z,21.10
2023-05-22T19:58:45.399Z,21.10
2023-05-22T20:02:13.227Z,21.10
2023-05-22T20:05:41.960Z,21.10
2023-05-22T20:09:10.427Z,21.10
2023-05-22T20:12:37.569Z,20.90
2023-05-22T20:16:12.078Z,20.40
2023-05-22T20:19:39.591Z,20.30
2023-05-22T20:23:07.079Z,20.40
2023-05-22T20:26:34.231Z,20.20
2023-05-22T20:30:01.274Z,20.00
2023-05-22T20:33:30.342Z,19.90
2023-05-22T20:36:58.861Z,20.10
2023-05-22T20:40:27.030Z,20.40
2023-05-22T20:43:54.720Z,20.20
2023-05-22T20:47:21.951Z,20.20
2023-05-22T20:50:50.983Z,20.00
2023-05-22T20:54:18.496Z,20.10
2023-05-22T20:57:46.015Z,19.90
2023-05-22T21:01:14.987Z,19.80
2023-05-22T21:04:42.317Z,19.50
2023-05-22T21:08:11.353Z,19.50
2023-05-22T21:11:38.806Z,19.60
2023-05-22T21:15:06.443Z,19.60
2023-05-22T21:18:33.931Z,19.50
2023-05-22T21:22:01.606Z,19.50
2023-05-22T21:25:31.400Z,19.80
2023-05-22T21:28:59.887Z,19.80
2023-05-22T21:32:27.136Z,19.50
2023-05-22T21:35:54.343Z,19.30
2023-05-22T21:39:21.805Z,19.10
2023-05-22T21:42:51.131Z,18.80
2023-05-22T21:46:18.375Z,18.80
